MMNL/NLD METAR and TAF weather

Enter ICAO airport designator
Station Type Date Time Source
MMNL METAR 2021/05/10 00:40 UTC NOAA

MMNL 100040Z 09006KT 10SM SKC 39/16 A2966


Station Type Date Time Source
MMNL Decoded METAR 2021/05/10 00:40 UTC NOAA

Nuevo Laredo International , Mexico (MMNL) 27-26N 099-34W
May 09, 2021 - 08:40 PM EDT / 2021.05.10 0040 UTC
Wind: from the E (090 degrees) at 7 MPH (6 KT):0
Visibility: 10 mile(s):0
Sky conditions: clear
Temperature: 102 F (39 C)
Heat index: 102.7 F (39.3 C):1
Dew Point: 60 F (16 C)
Relative Humidity: 25%
Pressure (altimeter): 29.66 in. Hg (1004 hPa)
ob: MMNL 100040Z 09006KT 10SM SKC 39/16 A2966
cycle: 0

Station Type Date Time Source
MMNL TAF 2021/05/09 18:36 UTC NOAA

TAF MMNL 091729Z 0918/1018 08010KT P6SM SKC
BECMG 1002/1003 15010KT SCT020
FM100800 12008KT 6SM HZ BKN020
TEMPO 1011/1015 3SM BR HZ OVC010
FM101600 13010KT P6SM SCT020

Example: see airport list